Terminal Aerodrome Forecast
Issued by NWS

Home | Current Version | Previous Version | Text Only | Print | Product List | Glossary On
Versions: 1 2 3 4 5 6 7 8 9 10 11 12 13 14 15 16 17 18 19 20 21 22 23 24 25 26 27 28 29 30 31 32 33 34 35 36 37
000
FTUS41 KBTV 031913 RRN
TAFBTV

TAF

TAF
KPBG 032320Z 0318/0418 20010G18KT P6SM VVCSH SCT035 BKN100
      TEMPO 0319/0321 VRB15G35KT 3SM -TSRA BKN035CB
     FM040000 20006KT P6SM BKN060
     FM040600 VRB04KT P6SM SCT060
     FM041000 18008KT P6SM SCT060 BKN120
     FM041600 20008KT P6SM VCSH BKN040=

USA.gov is the U.S. government's official web portal to all federal, state and local government web resources and services.